sensor_id;sensor_type;location;lat;lon;timestamp;P1;durP1;ratioP1;P2;durP2;ratioP2
24663;SDS011;12791;50.992;13.788;2023-02-15T00:00:04;48.33;;;27.77;;
24663;SDS011;12791;50.992;13.788;2023-02-15T00:02:33;44.58;;;26.27;;
24663;SDS011;12791;50.992;13.788;2023-02-15T00:04:59;48.58;;;26.33;;
24663;SDS011;12791;50.992;13.788;2023-02-15T00:07:26;44.20;;;26.20;;
24663;SDS011;12791;50.992;13.788;2023-02-15T00:09:52;44.58;;;25.67;;
24663;SDS011;12791;50.992;13.788;2023-02-15T00:12:19;41.95;;;25.48;;
24663;SDS011;12791;50.992;13.788;2023-02-15T00:14:47;44.50;;;23.55;;
24663;SDS011;12791;50.992;13.788;2023-02-15T00:17:13;45.85;;;26.67;;
24663;SDS011;12791;50.992;13.788;2023-02-15T00:19:40;45.70;;;26.45;;
24663;SDS011;12791;50.992;13.788;2023-02-15T00:22:07;49.10;;;26.92;;
24663;SDS011;12791;50.992;13.788;2023-02-15T00:24:34;44.85;;;26.33;;
24663;SDS011;12791;50.992;13.788;2023-02-15T00:27:00;49.58;;;25.90;;
24663;SDS011;12791;50.992;13.788;2023-02-15T00:29:27;46.33;;;25.65;;
24663;SDS011;12791;50.992;13.788;2023-02-15T00:31:55;52.10;;;27.67;;
24663;SDS011;12791;50.992;13.788;2023-02-15T00:34:22;44.92;;;25.50;;
24663;SDS011;12791;50.992;13.788;2023-02-15T00:36:50;44.83;;;25.92;;
24663;SDS011;12791;50.992;13.788;2023-02-15T00:39:17;47.63;;;25.88;;
24663;SDS011;12791;50.992;13.788;2023-02-15T00:41:44;44.03;;;24.77;;
24663;SDS011;12791;50.992;13.788;2023-02-15T00:44:11;44.95;;;25.73;;
24663;SDS011;12791;50.992;13.788;2023-02-15T00:46:38;47.42;;;26.15;;
24663;SDS011;12791;50.992;13.788;2023-02-15T00:49:06;43.90;;;25.30;;
24663;SDS011;12791;50.992;13.788;2023-02-15T00:51:32;42.05;;;24.25;;
24663;SDS011;12791;50.992;13.788;2023-02-15T00:53:59;42.95;;;24.00;;
24663;SDS011;12791;50.992;13.788;2023-02-15T00:56:26;38.03;;;22.70;;
24663;SDS011;12791;50.992;13.788;2023-02-15T00:58:53;44.90;;;25.15;;
24663;SDS011;12791;50.992;13.788;2023-02-15T01:01:20;45.92;;;25.20;;
24663;SDS011;12791;50.992;13.788;2023-02-15T01:03:47;45.28;;;26.27;;
24663;SDS011;12791;50.992;13.788;2023-02-15T01:06:15;42.08;;;23.85;;
24663;SDS011;12791;50.992;13.788;2023-02-15T01:08:43;44.15;;;25.10;;
24663;SDS011;12791;50.992;13.788;2023-02-15T01:11:11;48.33;;;26.15;;
24663;SDS011;12791;50.992;13.788;2023-02-15T01:13:39;45.10;;;24.85;;
24663;SDS011;12791;50.992;13.788;2023-02-15T01:16:06;44.28;;;24.10;;
24663;SDS011;12791;50.992;13.788;2023-02-15T01:18:33;41.58;;;22.48;;
24663;SDS011;12791;50.992;13.788;2023-02-15T01:20:59;42.42;;;24.38;;
24663;SDS011;12791;50.992;13.788;2023-02-15T01:23:35;43.95;;;23.13;;
24663;SDS011;12791;50.992;13.788;2023-02-15T01:26:02;44.60;;;24.02;;
24663;SDS011;12791;50.992;13.788;2023-02-15T01:28:28;44.15;;;23.42;;
24663;SDS011;12791;50.992;13.788;2023-02-15T01:30:55;43.58;;;23.42;;
24663;SDS011;12791;50.992;13.788;2023-02-15T01:33:22;41.50;;;22.48;;
24663;SDS011;12791;50.992;13.788;2023-02-15T01:35:48;38.60;;;21.98;;
24663;SDS011;12791;50.992;13.788;2023-02-15T01:38:21;41.70;;;23.13;;
24663;SDS011;12791;50.992;13.788;2023-02-15T01:40:51;39.00;;;22.63;;
24663;SDS011;12791;50.992;13.788;2023-02-15T01:43:18;37.58;;;22.05;;
24663;SDS011;12791;50.992;13.788;2023-02-15T01:45:45;38.97;;;22.33;;
24663;SDS011;12791;50.992;13.788;2023-02-15T01:48:17;39.22;;;21.77;;
24663;SDS011;12791;50.992;13.788;2023-02-15T01:50:47;34.83;;;21.65;;
24663;SDS011;12791;50.992;13.788;2023-02-15T01:53:19;33.65;;;20.13;;
24663;SDS011;12791;50.992;13.788;2023-02-15T01:55:49;39.92;;;22.52;;
24663;SDS011;12791;50.992;13.788;2023-02-15T01:58:21;37.13;;;21.63;;
24663;SDS011;12791;50.992;13.788;2023-02-15T02:00:48;38.83;;;21.60;;
24663;SDS011;12791;50.992;13.788;2023-02-15T02:03:15;38.30;;;22.02;;
24663;SDS011;12791;50.992;13.788;2023-02-15T02:05:42;36.08;;;20.88;;
24663;SDS011;12791;50.992;13.788;2023-02-15T02:08:09;37.78;;;21.15;;
24663;SDS011;12791;50.992;13.788;2023-02-15T02:10:36;34.95;;;20.75;;
24663;SDS011;12791;50.992;13.788;2023-02-15T02:13:04;37.75;;;21.02;;
24663;SDS011;12791;50.992;13.788;2023-02-15T02:15:34;35.80;;;20.73;;
24663;SDS011;12791;50.992;13.788;2023-02-15T02:18:09;36.33;;;21.00;;
24663;SDS011;12791;50.992;13.788;2023-02-15T02:20:59;34.45;;;20.77;;
24663;SDS011;12791;50.992;13.788;2023-02-15T02:23:47;36.78;;;19.70;;
24663;SDS011;12791;50.992;13.788;2023-02-15T02:26:47;32.03;;;19.05;;
24663;SDS011;12791;50.992;13.788;2023-02-15T02:29:58;33.80;;;19.75;;
24663;SDS011;12791;50.992;13.788;2023-02-15T02:32:54;34.13;;;19.17;;
24663;SDS011;12791;50.992;13.788;2023-02-15T02:35:44;36.00;;;20.80;;
24663;SDS011;12791;50.992;13.788;2023-02-15T02:38:21;36.55;;;20.42;;
24663;SDS011;12791;50.992;13.788;2023-02-15T02:43:25;36.17;;;18.77;;
24663;SDS011;12791;50.992;13.788;2023-02-15T02:45:59;34.47;;;19.42;;
24663;SDS011;12791;50.992;13.788;2023-02-15T02:48:30;39.13;;;20.92;;
24663;SDS011;12791;50.992;13.788;2023-02-15T02:50:59;38.35;;;20.25;;
24663;SDS011;12791;50.992;13.788;2023-02-15T02:53:26;33.60;;;18.95;;
24663;SDS011;12791;50.992;13.788;2023-02-15T02:55:56;31.95;;;18.73;;
24663;SDS011;12791;50.992;13.788;2023-02-15T02:58:26;30.45;;;18.27;;
24663;SDS011;12791;50.992;13.788;2023-02-15T03:03:32;37.78;;;20.95;;
24663;SDS011;12791;50.992;13.788;2023-02-15T03:06:03;33.55;;;18.88;;
24663;SDS011;12791;50.992;13.788;2023-02-15T03:08:36;32.78;;;18.60;;
24663;SDS011;12791;50.992;13.788;2023-02-15T03:11:07;34.78;;;19.08;;
24663;SDS011;12791;50.992;13.788;2023-02-15T03:13:35;37.67;;;18.65;;
24663;SDS011;12791;50.992;13.788;2023-02-15T03:16:01;29.50;;;17.75;;
24663;SDS011;12791;50.992;13.788;2023-02-15T03:18:51;33.20;;;17.92;;
24663;SDS011;12791;50.992;13.788;2023-02-15T03:21:24;30.75;;;17.85;;
24663;SDS011;12791;50.992;13.788;2023-02-15T03:23:56;27.27;;;16.10;;
24663;SDS011;12791;50.992;13.788;2023-02-15T03:26:26;27.80;;;16.50;;
24663;SDS011;12791;50.992;13.788;2023-02-15T03:28:55;30.48;;;17.92;;
24663;SDS011;12791;50.992;13.788;2023-02-15T03:31:25;28.50;;;17.42;;
24663;SDS011;12791;50.992;13.788;2023-02-15T03:33:57;30.83;;;17.50;;
24663;SDS011;12791;50.992;13.788;2023-02-15T03:36:27;32.28;;;17.83;;
24663;SDS011;12791;50.992;13.788;2023-02-15T03:39:00;32.75;;;18.55;;
24663;SDS011;12791;50.992;13.788;2023-02-15T03:41:34;32.55;;;17.45;;
24663;SDS011;12791;50.992;13.788;2023-02-15T03:44:06;31.50;;;17.58;;
24663;SDS011;12791;50.992;13.788;2023-02-15T03:46:38;33.33;;;18.45;;
24663;SDS011;12791;50.992;13.788;2023-02-15T03:49:10;30.17;;;17.30;;
24663;SDS011;12791;50.992;13.788;2023-02-15T03:54:09;30.63;;;16.50;;
24663;SDS011;12791;50.992;13.788;2023-02-15T03:56:38;31.67;;;17.38;;
24663;SDS011;12791;50.992;13.788;2023-02-15T03:59:27;31.60;;;17.80;;
24663;SDS011;12791;50.992;13.788;2023-02-15T04:02:12;30.85;;;17.25;;
24663;SDS011;12791;50.992;13.788;2023-02-15T04:04:47;28.92;;;16.75;;
24663;SDS011;12791;50.992;13.788;2023-02-15T04:07:14;28.45;;;16.52;;
24663;SDS011;12791;50.992;13.788;2023-02-15T04:09:40;31.38;;;17.60;;
24663;SDS011;12791;50.992;13.788;2023-02-15T04:12:25;29.77;;;16.40;;
24663;SDS011;12791;50.992;13.788;2023-02-15T04:14:51;31.50;;;17.67;;
24663;SDS011;12791;50.992;13.788;2023-02-15T04:17:35;31.25;;;17.17;;
24663;SDS011;12791;50.992;13.788;2023-02-15T04:20:04;28.98;;;16.40;;
24663;SDS011;12791;50.992;13.788;2023-02-15T04:22:49;32.63;;;16.63;;
24663;SDS011;12791;50.992;13.788;2023-02-15T04:25:33;30.90;;;16.90;;
24663;SDS011;12791;50.992;13.788;2023-02-15T04:28:00;29.00;;;16.35;;
24663;SDS011;12791;50.992;13.788;2023-02-15T04:30:26;30.58;;;16.90;;
24663;SDS011;12791;50.992;13.788;2023-02-15T04:32:53;30.05;;;16.83;;
24663;SDS011;12791;50.992;13.788;2023-02-15T04:35:23;29.48;;;16.65;;
24663;SDS011;12791;50.992;13.788;2023-02-15T04:37:50;29.02;;;16.17;;
24663;SDS011;12791;50.992;13.788;2023-02-15T04:40:17;27.08;;;15.35;;
24663;SDS011;12791;50.992;13.788;2023-02-15T04:42:43;28.70;;;16.05;;
24663;SDS011;12791;50.992;13.788;2023-02-15T04:45:10;37.67;;;20.45;;
24663;SDS011;12791;50.992;13.788;2023-02-15T04:47:37;29.60;;;16.75;;
24663;SDS011;12791;50.992;13.788;2023-02-15T04:50:04;31.08;;;17.48;;
24663;SDS011;12791;50.992;13.788;2023-02-15T04:52:32;27.77;;;15.50;;
24663;SDS011;12791;50.992;13.788;2023-02-15T04:54:59;28.60;;;15.57;;
24663;SDS011;12791;50.992;13.788;2023-02-15T04:57:26;27.65;;;15.40;;
24663;SDS011;12791;50.992;13.788;2023-02-15T04:59:52;25.33;;;15.18;;
24663;SDS011;12791;50.992;13.788;2023-02-15T05:02:19;28.75;;;15.85;;
24663;SDS011;12791;50.992;13.788;2023-02-15T05:04:45;27.60;;;15.27;;
24663;SDS011;12791;50.992;13.788;2023-02-15T05:07:12;25.13;;;14.57;;
24663;SDS011;12791;50.992;13.788;2023-02-15T05:09:41;26.90;;;15.05;;
24663;SDS011;12791;50.992;13.788;2023-02-15T05:12:07;26.40;;;15.00;;
24663;SDS011;12791;50.992;13.788;2023-02-15T05:14:34;26.42;;;15.07;;
24663;SDS011;12791;50.992;13.788;2023-02-15T05:17:00;25.83;;;15.10;;
24663;SDS011;12791;50.992;13.788;2023-02-15T05:19:28;25.65;;;14.57;;
24663;SDS011;12791;50.992;13.788;2023-02-15T05:21:54;26.35;;;14.43;;
24663;SDS011;12791;50.992;13.788;2023-02-15T05:24:21;26.48;;;14.80;;
24663;SDS011;12791;50.992;13.788;2023-02-15T05:27:07;23.65;;;13.38;;
24663;SDS011;12791;50.992;13.788;2023-02-15T05:29:54;26.17;;;13.38;;
24663;SDS011;12791;50.992;13.788;2023-02-15T05:32:20;24.55;;;14.05;;
24663;SDS011;12791;50.992;13.788;2023-02-15T05:34:47;24.63;;;13.45;;
24663;SDS011;12791;50.992;13.788;2023-02-15T05:37:13;21.65;;;12.77;;
24663;SDS011;12791;50.992;13.788;2023-02-15T05:39:40;24.77;;;14.05;;
24663;SDS011;12791;50.992;13.788;2023-02-15T05:42:08;22.58;;;12.75;;
24663;SDS011;12791;50.992;13.788;2023-02-15T05:44:34;23.90;;;13.50;;
24663;SDS011;12791;50.992;13.788;2023-02-15T05:47:01;25.02;;;14.05;;
24663;SDS011;12791;50.992;13.788;2023-02-15T05:49:28;23.73;;;13.38;;
24663;SDS011;12791;50.992;13.788;2023-02-15T05:51:55;22.65;;;13.60;;
24663;SDS011;12791;50.992;13.788;2023-02-15T05:54:22;23.92;;;13.43;;
24663;SDS011;12791;50.992;13.788;2023-02-15T05:56:48;21.92;;;12.70;;
24663;SDS011;12791;50.992;13.788;2023-02-15T05:59:17;26.85;;;13.07;;
24663;SDS011;12791;50.992;13.788;2023-02-15T06:01:43;22.85;;;12.57;;
24663;SDS011;12791;50.992;13.788;2023-02-15T06:04:10;24.65;;;13.32;;
24663;SDS011;12791;50.992;13.788;2023-02-15T06:06:36;21.85;;;13.27;;
24663;SDS011;12791;50.992;13.788;2023-02-15T06:09:03;22.83;;;13.20;;
24663;SDS011;12791;50.992;13.788;2023-02-15T06:11:30;21.70;;;12.65;;
24663;SDS011;12791;50.992;13.788;2023-02-15T06:13:56;21.33;;;13.55;;
24663;SDS011;12791;50.992;13.788;2023-02-15T06:16:24;24.20;;;13.93;;
24663;SDS011;12791;50.992;13.788;2023-02-15T06:18:51;25.17;;;13.60;;
24663;SDS011;12791;50.992;13.788;2023-02-15T06:21:18;23.75;;;14.00;;
24663;SDS011;12791;50.992;13.788;2023-02-15T06:23:44;23.75;;;14.27;;
24663;SDS011;12791;50.992;13.788;2023-02-15T06:26:11;23.60;;;12.90;;
24663;SDS011;12791;50.992;13.788;2023-02-15T06:28:37;25.65;;;12.77;;
24663;SDS011;12791;50.992;13.788;2023-02-15T06:31:06;24.67;;;13.55;;
24663;SDS011;12791;50.992;13.788;2023-02-15T06:33:34;22.27;;;12.75;;
24663;SDS011;12791;50.992;13.788;2023-02-15T06:36:00;24.30;;;15.80;;
24663;SDS011;12791;50.992;13.788;2023-02-15T06:38:28;26.88;;;16.95;;
24663;SDS011;12791;50.992;13.788;2023-02-15T06:40:55;24.85;;;16.40;;
24663;SDS011;12791;50.992;13.788;2023-02-15T06:43:21;23.92;;;14.48;;
24663;SDS011;12791;50.992;13.788;2023-02-15T06:45:48;21.40;;;12.48;;
24663;SDS011;12791;50.992;13.788;2023-02-15T06:48:14;24.00;;;13.45;;
24663;SDS011;12791;50.992;13.788;2023-02-15T06:50:42;22.50;;;12.95;;
24663;SDS011;12791;50.992;13.788;2023-02-15T06:53:09;23.38;;;13.05;;
24663;SDS011;12791;50.992;13.788;2023-02-15T06:55:35;24.58;;;14.02;;
24663;SDS011;12791;50.992;13.788;2023-02-15T06:58:02;23.77;;;13.10;;
24663;SDS011;12791;50.992;13.788;2023-02-15T07:00:29;22.95;;;13.68;;
24663;SDS011;12791;50.992;13.788;2023-02-15T07:02:56;22.75;;;12.38;;
24663;SDS011;12791;50.992;13.788;2023-02-15T07:05:24;21.25;;;12.43;;
24663;SDS011;12791;50.992;13.788;2023-02-15T07:07:56;22.88;;;13.10;;
24663;SDS011;12791;50.992;13.788;2023-02-15T07:10:23;22.85;;;13.45;;
24663;SDS011;12791;50.992;13.788;2023-02-15T07:12:50;25.95;;;13.93;;
24663;SDS011;12791;50.992;13.788;2023-02-15T07:15:17;23.63;;;13.27;;
24663;SDS011;12791;50.992;13.788;2023-02-15T07:17:45;25.40;;;14.02;;
24663;SDS011;12791;50.992;13.788;2023-02-15T07:20:13;24.00;;;13.90;;
24663;SDS011;12791;50.992;13.788;2023-02-15T07:22:41;21.77;;;12.40;;
24663;SDS011;12791;50.992;13.788;2023-02-15T07:25:10;24.38;;;13.75;;
24663;SDS011;12791;50.992;13.788;2023-02-15T07:27:37;24.15;;;13.73;;
24663;SDS011;12791;50.992;13.788;2023-02-15T07:30:05;22.95;;;12.63;;
24663;SDS011;12791;50.992;13.788;2023-02-15T07:32:33;25.58;;;13.70;;
24663;SDS011;12791;50.992;13.788;2023-02-15T07:35:00;23.45;;;13.15;;
24663;SDS011;12791;50.992;13.788;2023-02-15T07:37:27;24.30;;;12.98;;
24663;SDS011;12791;50.992;13.788;2023-02-15T07:39:54;25.42;;;14.02;;
24663;SDS011;12791;50.992;13.788;2023-02-15T07:42:22;25.10;;;14.52;;
24663;SDS011;12791;50.992;13.788;2023-02-15T07:44:48;25.55;;;14.88;;
24663;SDS011;12791;50.992;13.788;2023-02-15T07:47:15;23.95;;;14.40;;
24663;SDS011;12791;50.992;13.788;2023-02-15T07:49:41;23.70;;;13.43;;
24663;SDS011;12791;50.992;13.788;2023-02-15T07:52:08;21.30;;;12.43;;
24663;SDS011;12791;50.992;13.788;2023-02-15T07:54:35;24.85;;;14.13;;
24663;SDS011;12791;50.992;13.788;2023-02-15T07:57:01;23.83;;;13.70;;
24663;SDS011;12791;50.992;13.788;2023-02-15T07:59:29;22.80;;;14.25;;
24663;SDS011;12791;50.992;13.788;2023-02-15T08:01:56;21.88;;;12.98;;
24663;SDS011;12791;50.992;13.788;2023-02-15T08:04:22;21.55;;;12.70;;
24663;SDS011;12791;50.992;13.788;2023-02-15T08:06:51;21.27;;;12.43;;
24663;SDS011;12791;50.992;13.788;2023-02-15T08:09:18;23.13;;;12.75;;
24663;SDS011;12791;50.992;13.788;2023-02-15T08:11:46;20.70;;;12.82;;
24663;SDS011;12791;50.992;13.788;2023-02-15T08:14:14;21.13;;;13.27;;
24663;SDS011;12791;50.992;13.788;2023-02-15T08:16:44;23.55;;;14.13;;
24663;SDS011;12791;50.992;13.788;2023-02-15T08:19:12;21.80;;;12.82;;
24663;SDS011;12791;50.992;13.788;2023-02-15T08:21:42;23.55;;;13.88;;
24663;SDS011;12791;50.992;13.788;2023-02-15T08:24:10;23.27;;;13.48;;
24663;SDS011;12791;50.992;13.788;2023-02-15T08:26:39;26.20;;;14.45;;
24663;SDS011;12791;50.992;13.788;2023-02-15T08:29:06;23.83;;;14.95;;
24663;SDS011;12791;50.992;13.788;2023-02-15T08:31:35;24.80;;;15.18;;
24663;SDS011;12791;50.992;13.788;2023-02-15T08:34:04;22.50;;;14.55;;
24663;SDS011;12791;50.992;13.788;2023-02-15T08:36:31;23.25;;;13.98;;
24663;SDS011;12791;50.992;13.788;2023-02-15T08:38:58;22.33;;;14.43;;
24663;SDS011;12791;50.992;13.788;2023-02-15T08:41:26;23.35;;;13.95;;
24663;SDS011;12791;50.992;13.788;2023-02-15T08:43:55;23.25;;;13.80;;
24663;SDS011;12791;50.992;13.788;2023-02-15T08:46:24;20.80;;;13.00;;
24663;SDS011;12791;50.992;13.788;2023-02-15T08:48:51;23.05;;;13.32;;
24663;SDS011;12791;50.992;13.788;2023-02-15T08:51:21;23.25;;;13.60;;
24663;SDS011;12791;50.992;13.788;2023-02-15T08:53:50;20.55;;;11.73;;
24663;SDS011;12791;50.992;13.788;2023-02-15T08:56:19;20.20;;;12.90;;
24663;SDS011;12791;50.992;13.788;2023-02-15T08:58:46;20.35;;;12.85;;
24663;SDS011;12791;50.992;13.788;2023-02-15T09:01:14;18.70;;;12.18;;
24663;SDS011;12791;50.992;13.788;2023-02-15T09:03:43;21.45;;;12.45;;
24663;SDS011;12791;50.992;13.788;2023-02-15T09:06:10;20.85;;;12.38;;
24663;SDS011;12791;50.992;13.788;2023-02-15T09:08:38;21.25;;;12.63;;
24663;SDS011;12791;50.992;13.788;2023-02-15T09:11:06;21.00;;;12.65;;
24663;SDS011;12791;50.992;13.788;2023-02-15T09:13:34;19.20;;;12.50;;
24663;SDS011;12791;50.992;13.788;2023-02-15T09:16:01;18.63;;;11.80;;
24663;SDS011;12791;50.992;13.788;2023-02-15T09:18:29;19.17;;;11.93;;
24663;SDS011;12791;50.992;13.788;2023-02-15T09:21:03;17.92;;;10.93;;
24663;SDS011;12791;50.992;13.788;2023-02-15T09:23:30;17.92;;;11.63;;
24663;SDS011;12791;50.992;13.788;2023-02-15T09:26:00;20.98;;;11.95;;
24663;SDS011;12791;50.992;13.788;2023-02-15T09:28:28;20.10;;;12.05;;
24663;SDS011;12791;50.992;13.788;2023-02-15T09:30:54;18.55;;;11.13;;
24663;SDS011;12791;50.992;13.788;2023-02-15T09:33:21;22.23;;;11.90;;
24663;SDS011;12791;50.992;13.788;2023-02-15T09:35:50;17.80;;;12.00;;
24663;SDS011;12791;50.992;13.788;2023-02-15T09:38:16;17.85;;;11.40;;
24663;SDS011;12791;50.992;13.788;2023-02-15T09:40:44;21.98;;;13.10;;
24663;SDS011;12791;50.992;13.788;2023-02-15T09:43:26;24.42;;;14.50;;
24663;SDS011;12791;50.992;13.788;2023-02-15T09:46:15;24.98;;;14.85;;
24663;SDS011;12791;50.992;13.788;2023-02-15T09:48:54;23.83;;;14.13;;
24663;SDS011;12791;50.992;13.788;2023-02-15T09:51:28;22.55;;;14.30;;
24663;SDS011;12791;50.992;13.788;2023-02-15T09:54:09;24.87;;;15.07;;
24663;SDS011;12791;50.992;13.788;2023-02-15T09:56:48;26.67;;;14.57;;
24663;SDS011;12791;50.992;13.788;2023-02-15T09:59:22;30.33;;;16.23;;
24663;SDS011;12791;50.992;13.788;2023-02-15T10:01:58;25.15;;;15.20;;
24663;SDS011;12791;50.992;13.788;2023-02-15T10:04:43;28.42;;;15.68;;
24663;SDS011;12791;50.992;13.788;2023-02-15T10:07:34;28.25;;;16.15;;
24663;SDS011;12791;50.992;13.788;2023-02-15T10:10:15;32.78;;;17.15;;
24663;SDS011;12791;50.992;13.788;2023-02-15T10:12:54;32.53;;;17.55;;
24663;SDS011;12791;50.992;13.788;2023-02-15T10:15:35;32.40;;;17.45;;
24663;SDS011;12791;50.992;13.788;2023-02-15T10:18:23;35.20;;;19.67;;
24663;SDS011;12791;50.992;13.788;2023-02-15T10:21:00;38.72;;;19.77;;
24663;SDS011;12791;50.992;13.788;2023-02-15T10:23:42;34.78;;;19.85;;
24663;SDS011;12791;50.992;13.788;2023-02-15T10:26:19;34.97;;;19.75;;
24663;SDS011;12791;50.992;13.788;2023-02-15T10:28:48;29.90;;;17.73;;
24663;SDS011;12791;50.992;13.788;2023-02-15T10:31:23;31.73;;;18.40;;
24663;SDS011;12791;50.992;13.788;2023-02-15T10:33:56;31.83;;;18.33;;
24663;SDS011;12791;50.992;13.788;2023-02-15T10:36:37;31.40;;;17.60;;
24663;SDS011;12791;50.992;13.788;2023-02-15T10:39:20;31.33;;;17.58;;
24663;SDS011;12791;50.992;13.788;2023-02-15T10:41:56;30.83;;;18.08;;
24663;SDS011;12791;50.992;13.788;2023-02-15T10:44:35;27.30;;;17.42;;
24663;SDS011;12791;50.992;13.788;2023-02-15T10:47:20;31.77;;;18.50;;
24663;SDS011;12791;50.992;13.788;2023-02-15T10:50:07;30.88;;;17.63;;
24663;SDS011;12791;50.992;13.788;2023-02-15T10:52:50;29.15;;;17.60;;
24663;SDS011;12791;50.992;13.788;2023-02-15T10:55:28;31.38;;;18.05;;
24663;SDS011;12791;50.992;13.788;2023-02-15T10:58:07;31.77;;;16.50;;
24663;SDS011;12791;50.992;13.788;2023-02-15T11:00:44;27.45;;;16.55;;
24663;SDS011;12791;50.992;13.788;2023-02-15T11:03:23;23.85;;;15.45;;
24663;SDS011;12791;50.992;13.788;2023-02-15T11:06:03;27.85;;;16.13;;
24663;SDS011;12791;50.992;13.788;2023-02-15T11:08:32;27.17;;;15.73;;
24663;SDS011;12791;50.992;13.788;2023-02-15T11:11:03;25.23;;;15.38;;
24663;SDS011;12791;50.992;13.788;2023-02-15T11:13:34;25.33;;;15.95;;
24663;SDS011;12791;50.992;13.788;2023-02-15T11:16:06;29.35;;;16.10;;
24663;SDS011;12791;50.992;13.788;2023-02-15T11:18:39;25.20;;;15.07;;
24663;SDS011;12791;50.992;13.788;2023-02-15T11:21:09;25.52;;;14.80;;
24663;SDS011;12791;50.992;13.788;2023-02-15T11:23:41;25.13;;;15.77;;
24663;SDS011;12791;50.992;13.788;2023-02-15T11:26:11;25.23;;;15.90;;
24663;SDS011;12791;50.992;13.788;2023-02-15T11:28:42;27.25;;;16.48;;
24663;SDS011;12791;50.992;13.788;2023-02-15T11:31:15;25.65;;;14.73;;
24663;SDS011;12791;50.992;13.788;2023-02-15T11:33:45;26.85;;;16.40;;
24663;SDS011;12791;50.992;13.788;2023-02-15T11:36:17;25.95;;;15.48;;
24663;SDS011;12791;50.992;13.788;2023-02-15T11:38:47;29.13;;;16.58;;
24663;SDS011;12791;50.992;13.788;2023-02-15T11:41:18;26.30;;;16.48;;
24663;SDS011;12791;50.992;13.788;2023-02-15T11:43:49;26.60;;;15.98;;
24663;SDS011;12791;50.992;13.788;2023-02-15T11:46:20;26.65;;;16.55;;
24663;SDS011;12791;50.992;13.788;2023-02-15T11:48:48;24.77;;;15.45;;
24663;SDS011;12791;50.992;13.788;2023-02-15T11:51:16;25.45;;;16.40;;
24663;SDS011;12791;50.992;13.788;2023-02-15T11:53:44;25.92;;;16.92;;
24663;SDS011;12791;50.992;13.788;2023-02-15T11:56:15;28.17;;;16.70;;
24663;SDS011;12791;50.992;13.788;2023-02-15T11:58:44;28.77;;;16.85;;
24663;SDS011;12791;50.992;13.788;2023-02-15T12:01:16;27.15;;;16.05;;
24663;SDS011;12791;50.992;13.788;2023-02-15T12:03:47;26.52;;;16.05;;
24663;SDS011;12791;50.992;13.788;2023-02-15T12:06:17;26.80;;;16.73;;
24663;SDS011;12791;50.992;13.788;2023-02-15T12:08:49;25.75;;;16.17;;
24663;SDS011;12791;50.992;13.788;2023-02-15T12:11:22;23.83;;;15.63;;
24663;SDS011;12791;50.992;13.788;2023-02-15T12:13:54;23.98;;;14.90;;
24663;SDS011;12791;50.992;13.788;2023-02-15T12:16:22;27.55;;;17.25;;
24663;SDS011;12791;50.992;13.788;2023-02-15T12:18:50;24.17;;;17.02;;
24663;SDS011;12791;50.992;13.788;2023-02-15T12:21:23;23.98;;;16.05;;
24663;SDS011;12791;50.992;13.788;2023-02-15T12:23:53;27.23;;;15.88;;
24663;SDS011;12791;50.992;13.788;2023-02-15T12:26:24;23.15;;;15.43;;
24663;SDS011;12791;50.992;13.788;2023-02-15T12:28:52;23.38;;;14.38;;
24663;SDS011;12791;50.992;13.788;2023-02-15T12:31:23;24.13;;;15.88;;
24663;SDS011;12791;50.992;13.788;2023-02-15T12:33:56;23.17;;;15.10;;
24663;SDS011;12791;50.992;13.788;2023-02-15T12:36:29;27.60;;;16.58;;
24663;SDS011;12791;50.992;13.788;2023-02-15T12:39:05;25.42;;;14.63;;
24663;SDS011;12791;50.992;13.788;2023-02-15T12:41:44;20.83;;;14.45;;
24663;SDS011;12791;50.992;13.788;2023-02-15T12:44:23;28.13;;;16.70;;
24663;SDS011;12791;50.992;13.788;2023-02-15T12:46:58;25.73;;;16.05;;
24663;SDS011;12791;50.992;13.788;2023-02-15T12:49:28;25.05;;;15.95;;
24663;SDS011;12791;50.992;13.788;2023-02-15T12:51:56;26.73;;;16.70;;
24663;SDS011;12791;50.992;13.788;2023-02-15T12:54:29;26.10;;;16.63;;
24663;SDS011;12791;50.992;13.788;2023-02-15T12:57:12;25.25;;;17.42;;
24663;SDS011;12791;50.992;13.788;2023-02-15T12:59:51;24.90;;;15.88;;
24663;SDS011;12791;50.992;13.788;2023-02-15T13:02:25;26.85;;;16.83;;
24663;SDS011;12791;50.992;13.788;2023-02-15T13:04:55;26.95;;;16.13;;
24663;SDS011;12791;50.992;13.788;2023-02-15T13:07:24;27.02;;;16.67;;
24663;SDS011;12791;50.992;13.788;2023-02-15T13:09:56;29.90;;;18.38;;
24663;SDS011;12791;50.992;13.788;2023-02-15T13:12:24;24.73;;;16.98;;
24663;SDS011;12791;50.992;13.788;2023-02-15T13:14:52;26.30;;;16.23;;
24663;SDS011;12791;50.992;13.788;2023-02-15T13:17:21;27.48;;;16.40;;
24663;SDS011;12791;50.992;13.788;2023-02-15T13:19:56;25.17;;;15.80;;
24663;SDS011;12791;50.992;13.788;2023-02-15T13:22:27;29.02;;;17.13;;
24663;SDS011;12791;50.992;13.788;2023-02-15T13:25:01;27.70;;;17.70;;
24663;SDS011;12791;50.992;13.788;2023-02-15T13:27:35;26.80;;;17.27;;
24663;SDS011;12791;50.992;13.788;2023-02-15T13:30:10;26.58;;;16.05;;
24663;SDS011;12791;50.992;13.788;2023-02-15T13:32:52;28.55;;;16.63;;
24663;SDS011;12791;50.992;13.788;2023-02-15T13:35:23;27.67;;;17.65;;
24663;SDS011;12791;50.992;13.788;2023-02-15T13:37:58;30.08;;;18.88;;
24663;SDS011;12791;50.992;13.788;2023-02-15T13:40:41;31.70;;;19.38;;
24663;SDS011;12791;50.992;13.788;2023-02-15T13:43:18;29.80;;;18.80;;
24663;SDS011;12791;50.992;13.788;2023-02-15T13:45:57;33.35;;;20.77;;
24663;SDS011;12791;50.992;13.788;2023-02-15T13:48:37;29.45;;;18.48;;
24663;SDS011;12791;50.992;13.788;2023-02-15T13:51:15;28.15;;;17.08;;
24663;SDS011;12791;50.992;13.788;2023-02-15T13:54:03;30.00;;;19.45;;
24663;SDS011;12791;50.992;13.788;2023-02-15T13:56:45;28.45;;;18.15;;
24663;SDS011;12791;50.992;13.788;2023-02-15T13:59:24;32.28;;;20.13;;
24663;SDS011;12791;50.992;13.788;2023-02-15T14:02:27;33.10;;;19.73;;
24663;SDS011;12791;50.992;13.788;2023-02-15T14:05:15;33.42;;;20.13;;
24663;SDS011;12791;50.992;13.788;2023-02-15T14:07:55;33.55;;;19.92;;
24663;SDS011;12791;50.992;13.788;2023-02-15T14:10:34;31.75;;;20.63;;
24663;SDS011;12791;50.992;13.788;2023-02-15T14:13:11;34.45;;;21.23;;
24663;SDS011;12791;50.992;13.788;2023-02-15T14:15:52;33.47;;;20.40;;
24663;SDS011;12791;50.992;13.788;2023-02-15T14:18:27;36.58;;;21.98;;
24663;SDS011;12791;50.992;13.788;2023-02-15T14:21:03;33.95;;;20.48;;
24663;SDS011;12791;50.992;13.788;2023-02-15T14:23:41;34.28;;;20.25;;
24663;SDS011;12791;50.992;13.788;2023-02-15T14:26:18;36.08;;;23.05;;
24663;SDS011;12791;50.992;13.788;2023-02-15T14:28:55;36.30;;;21.20;;
24663;SDS011;12791;50.992;13.788;2023-02-15T14:31:32;34.38;;;21.58;;
24663;SDS011;12791;50.992;13.788;2023-02-15T14:36:31;36.17;;;22.02;;
24663;SDS011;12791;50.992;13.788;2023-02-15T14:39:02;37.35;;;22.63;;
24663;SDS011;12791;50.992;13.788;2023-02-15T14:42:00;34.67;;;22.13;;